sensor_id;sensor_type;location;lat;lon;timestamp;pressure;altitude;pressure_sealevel;temperature;humidity
34297;BME280;20564;42.902;25.336;2023-08-06T00:00:57;95977.69;;;22.66;78.57
34297;BME280;20564;42.902;25.336;2023-08-06T00:03:24;95978.03;;;22.52;80.55
34297;BME280;20564;42.902;25.336;2023-08-06T00:05:51;95979.78;;;22.42;80.73
34297;BME280;20564;42.902;25.336;2023-08-06T00:08:21;95990.41;;;22.36;80.99
34297;BME280;20564;42.902;25.336;2023-08-06T00:10:48;95985.53;;;22.33;81.48
34297;BME280;20564;42.902;25.336;2023-08-06T00:13:15;95988.53;;;22.20;82.45
34297;BME280;20564;42.902;25.336;2023-08-06T00:15:42;95997.44;;;22.09;82.71
34297;BME280;20564;42.902;25.336;2023-08-06T00:18:09;95987.81;;;21.96;83.17
34297;BME280;20564;42.902;25.336;2023-08-06T00:20:39;95997.25;;;21.99;83.29
34297;BME280;20564;42.902;25.336;2023-08-06T00:23:07;95993.81;;;21.86;83.80
34297;BME280;20564;42.902;25.336;2023-08-06T00:25:34;95999.75;;;21.88;84.01
34297;BME280;20564;42.902;25.336;2023-08-06T00:28:01;96004.63;;;21.91;83.69
34297;BME280;20564;42.902;25.336;2023-08-06T00:30:29;96002.91;;;21.85;83.22
34297;BME280;20564;42.902;25.336;2023-08-06T00:32:56;96006.25;;;21.92;83.21
34297;BME280;20564;42.902;25.336;2023-08-06T00:35:23;96002.84;;;21.97;83.98
34297;BME280;20564;42.902;25.336;2023-08-06T00:37:51;96003.69;;;21.98;82.91
34297;BME280;20564;42.902;25.336;2023-08-06T00:40:20;95997.72;;;21.96;82.50
34297;BME280;20564;42.902;25.336;2023-08-06T00:42:48;95991.31;;;21.97;81.85
34297;BME280;20564;42.902;25.336;2023-08-06T00:45:15;95997.16;;;21.94;81.40
34297;BME280;20564;42.902;25.336;2023-08-06T00:47:43;95994.97;;;21.90;81.04
34297;BME280;20564;42.902;25.336;2023-08-06T00:50:10;95985.75;;;21.86;81.72
34297;BME280;20564;42.902;25.336;2023-08-06T00:52:37;95989.03;;;21.88;80.86
34297;BME280;20564;42.902;25.336;2023-08-06T00:55:05;95986.34;;;21.88;81.40
34297;BME280;20564;42.902;25.336;2023-08-06T00:57:32;95981.41;;;21.80;82.10
34297;BME280;20564;42.902;25.336;2023-08-06T00:59:59;95982.47;;;21.79;81.50
34297;BME280;20564;42.902;25.336;2023-08-06T01:02:27;95987.22;;;21.77;80.55
34297;BME280;20564;42.902;25.336;2023-08-06T01:04:53;95972.78;;;21.78;82.35
34297;BME280;20564;42.902;25.336;2023-08-06T01:10:32;95978.66;;;21.63;82.11
34297;BME280;20564;42.902;25.336;2023-08-06T01:13:28;95972.97;;;21.60;82.42
34297;BME280;20564;42.902;25.336;2023-08-06T01:15:58;95968.69;;;21.59;81.56
34297;BME280;20564;42.902;25.336;2023-08-06T01:18:26;95969.41;;;21.54;81.87
34297;BME280;20564;42.902;25.336;2023-08-06T01:20:53;95963.59;;;21.46;82.19
34297;BME280;20564;42.902;25.336;2023-08-06T01:23:20;95959.22;;;21.39;83.33
34297;BME280;20564;42.902;25.336;2023-08-06T01:29:23;95956.06;;;21.31;82.41
34297;BME280;20564;42.902;25.336;2023-08-06T01:31:52;95969.69;;;21.29;83.55
34297;BME280;20564;42.902;25.336;2023-08-06T01:34:22;95961.31;;;21.26;83.92
34297;BME280;20564;42.902;25.336;2023-08-06T01:36:51;95959.38;;;21.21;83.86
34297;BME280;20564;42.902;25.336;2023-08-06T01:39:18;95954.16;;;21.14;83.59
34297;BME280;20564;42.902;25.336;2023-08-06T01:41:48;95963.91;;;21.09;84.87
34297;BME280;20564;42.902;25.336;2023-08-06T01:44:16;95968.13;;;21.05;84.88
34297;BME280;20564;42.902;25.336;2023-08-06T01:46:43;95970.25;;;21.03;85.84
34297;BME280;20564;42.902;25.336;2023-08-06T01:49:10;95965.34;;;21.00;86.70
34297;BME280;20564;42.902;25.336;2023-08-06T01:51:37;95967.44;;;20.98;86.54
34297;BME280;20564;42.902;25.336;2023-08-06T01:54:04;95965.81;;;20.97;87.34
34297;BME280;20564;42.902;25.336;2023-08-06T01:56:31;95971.75;;;20.87;87.08
34297;BME280;20564;42.902;25.336;2023-08-06T01:58:58;95965.81;;;20.97;87.38
34297;BME280;20564;42.902;25.336;2023-08-06T02:01:28;95955.38;;;20.83;87.82
34297;BME280;20564;42.902;25.336;2023-08-06T02:03:55;95956.31;;;20.77;87.63
34297;BME280;20564;42.902;25.336;2023-08-06T02:06:21;95951.44;;;20.74;84.85
34297;BME280;20564;42.902;25.336;2023-08-06T02:08:48;95955.47;;;20.77;84.03
34297;BME280;20564;42.902;25.336;2023-08-06T02:11:15;95948.75;;;20.74;84.29
34297;BME280;20564;42.902;25.336;2023-08-06T02:13:42;95962.59;;;20.71;85.71
34297;BME280;20564;42.902;25.336;2023-08-06T02:16:09;95969.81;;;20.70;86.02
34297;BME280;20564;42.902;25.336;2023-08-06T02:18:36;95967.38;;;20.57;86.03
34297;BME280;20564;42.902;25.336;2023-08-06T02:21:03;95968.63;;;20.55;85.98
34297;BME280;20564;42.902;25.336;2023-08-06T02:23:31;95955.38;;;20.48;86.50
34297;BME280;20564;42.902;25.336;2023-08-06T02:26:01;95961.47;;;20.55;86.16
34297;BME280;20564;42.902;25.336;2023-08-06T02:28:30;95966.66;;;20.50;85.98
34297;BME280;20564;42.902;25.336;2023-08-06T02:30:57;95958.44;;;20.52;86.41
34297;BME280;20564;42.902;25.336;2023-08-06T02:33:25;95961.03;;;20.40;85.63
34297;BME280;20564;42.902;25.336;2023-08-06T02:35:59;95962.00;;;20.34;86.77
34297;BME280;20564;42.902;25.336;2023-08-06T02:38:27;95970.22;;;20.32;87.88
34297;BME280;20564;42.902;25.336;2023-08-06T02:40:54;95972.69;;;20.34;87.46
34297;BME280;20564;42.902;25.336;2023-08-06T02:43:21;95972.09;;;20.20;87.64
34297;BME280;20564;42.902;25.336;2023-08-06T02:45:48;95971.16;;;20.26;88.20
34297;BME280;20564;42.902;25.336;2023-08-06T02:48:16;95976.16;;;20.22;88.28
34297;BME280;20564;42.902;25.336;2023-08-06T02:50:45;95982.78;;;20.20;89.48
34297;BME280;20564;42.902;25.336;2023-08-06T02:53:11;95970.13;;;20.15;90.09
34297;BME280;20564;42.902;25.336;2023-08-06T02:55:47;95957.22;;;20.12;90.09
34297;BME280;20564;42.902;25.336;2023-08-06T02:58:15;95954.41;;;20.07;90.78
34297;BME280;20564;42.902;25.336;2023-08-06T03:00:43;95959.53;;;20.09;91.65
34297;BME280;20564;42.902;25.336;2023-08-06T03:03:11;95951.63;;;20.14;89.71
34297;BME280;20564;42.902;25.336;2023-08-06T03:05:38;95956.16;;;20.13;90.08
34297;BME280;20564;42.902;25.336;2023-08-06T03:08:05;95951.84;;;20.01;90.77
34297;BME280;20564;42.902;25.336;2023-08-06T03:10:33;95947.31;;;19.89;90.89
34297;BME280;20564;42.902;25.336;2023-08-06T03:13:00;95941.81;;;19.84;90.97
34297;BME280;20564;42.902;25.336;2023-08-06T03:15:26;95943.09;;;19.82;91.07
34297;BME280;20564;42.902;25.336;2023-08-06T03:17:55;95934.16;;;19.76;91.67
34297;BME280;20564;42.902;25.336;2023-08-06T03:20:22;95930.88;;;19.74;91.36
34297;BME280;20564;42.902;25.336;2023-08-06T03:22:50;95930.88;;;19.74;92.53
34297;BME280;20564;42.902;25.336;2023-08-06T03:25:17;95935.66;;;19.72;92.78
34297;BME280;20564;42.902;25.336;2023-08-06T03:27:44;95934.25;;;19.69;93.49
34297;BME280;20564;42.902;25.336;2023-08-06T03:30:12;95923.22;;;19.66;93.54
34297;BME280;20564;42.902;25.336;2023-08-06T03:32:38;95920.31;;;19.67;94.09
34297;BME280;20564;42.902;25.336;2023-08-06T03:35:06;95914.63;;;19.64;94.24
34297;BME280;20564;42.902;25.336;2023-08-06T03:37:33;95922.63;;;19.64;94.65
34297;BME280;20564;42.902;25.336;2023-08-06T03:40:00;95925.88;;;19.66;95.20
34297;BME280;20564;42.902;25.336;2023-08-06T03:42:27;95923.56;;;19.69;95.31
34297;BME280;20564;42.902;25.336;2023-08-06T03:44:54;95922.31;;;19.72;94.67
34297;BME280;20564;42.902;25.336;2023-08-06T03:47:21;95926.03;;;19.71;95.02
34297;BME280;20564;42.902;25.336;2023-08-06T03:49:48;95937.72;;;19.70;94.37
34297;BME280;20564;42.902;25.336;2023-08-06T03:52:16;95937.28;;;19.73;94.64
34297;BME280;20564;42.902;25.336;2023-08-06T03:54:42;95942.28;;;19.81;94.55
34297;BME280;20564;42.902;25.336;2023-08-06T03:57:09;95946.81;;;19.92;93.14
34297;BME280;20564;42.902;25.336;2023-08-06T03:59:37;95936.75;;;19.94;92.91
34297;BME280;20564;42.902;25.336;2023-08-06T04:02:03;95938.81;;;19.92;93.22
34297;BME280;20564;42.902;25.336;2023-08-06T04:04:30;95944.16;;;19.92;94.25
34297;BME280;20564;42.902;25.336;2023-08-06T04:06:57;95948.03;;;19.96;93.61
34297;BME280;20564;42.902;25.336;2023-08-06T04:09:24;95943.25;;;19.98;94.22
34297;BME280;20564;42.902;25.336;2023-08-06T04:11:50;95960.69;;;20.13;93.90
34297;BME280;20564;42.902;25.336;2023-08-06T04:14:18;95955.81;;;20.21;93.27
34297;BME280;20564;42.902;25.336;2023-08-06T04:16:45;95950.59;;;20.27;92.69
34297;BME280;20564;42.902;25.336;2023-08-06T04:19:12;95947.69;;;20.40;93.05
34297;BME280;20564;42.902;25.336;2023-08-06T04:21:39;95952.84;;;20.53;92.23
34297;BME280;20564;42.902;25.336;2023-08-06T04:24:05;95957.63;;;20.63;91.75
34297;BME280;20564;42.902;25.336;2023-08-06T04:26:32;95953.88;;;20.76;90.73
34297;BME280;20564;42.902;25.336;2023-08-06T04:28:59;95951.84;;;20.94;88.87
34297;BME280;20564;42.902;25.336;2023-08-06T04:31:26;95961.16;;;21.04;88.38
34297;BME280;20564;42.902;25.336;2023-08-06T04:33:53;95949.25;;;21.11;86.84
34297;BME280;20564;42.902;25.336;2023-08-06T04:36:20;95949.69;;;21.20;87.22
34297;BME280;20564;42.902;25.336;2023-08-06T04:38:47;95949.34;;;21.28;86.15
34297;BME280;20564;42.902;25.336;2023-08-06T04:41:14;95944.78;;;21.40;88.99
34297;BME280;20564;42.902;25.336;2023-08-06T04:43:41;95929.72;;;21.51;88.86
34297;BME280;20564;42.902;25.336;2023-08-06T04:46:08;95934.81;;;21.53;88.33
34297;BME280;20564;42.902;25.336;2023-08-06T04:48:34;95932.00;;;21.59;88.43
34297;BME280;20564;42.902;25.336;2023-08-06T04:51:01;95929.25;;;21.71;88.76
34297;BME280;20564;42.902;25.336;2023-08-06T04:53:28;95920.84;;;21.79;86.61
34297;BME280;20564;42.902;25.336;2023-08-06T04:55:55;95925.88;;;21.92;84.65
34297;BME280;20564;42.902;25.336;2023-08-06T04:58:22;95918.66;;;22.10;83.76
34297;BME280;20564;42.902;25.336;2023-08-06T05:00:49;95920.53;;;22.43;80.06
34297;BME280;20564;42.902;25.336;2023-08-06T05:03:16;95908.66;;;22.78;77.21
34297;BME280;20564;42.902;25.336;2023-08-06T05:05:43;95913.88;;;23.06;75.60
34297;BME280;20564;42.902;25.336;2023-08-06T05:08:14;95910.16;;;23.34;73.20
34297;BME280;20564;42.902;25.336;2023-08-06T05:10:44;95920.38;;;23.59;73.00
34297;BME280;20564;42.902;25.336;2023-08-06T05:13:11;95919.91;;;23.95;71.40
34297;BME280;20564;42.902;25.336;2023-08-06T05:15:38;95927.13;;;24.21;69.75
34297;BME280;20564;42.902;25.336;2023-08-06T05:18:09;95910.00;;;24.33;69.38
34297;BME280;20564;42.902;25.336;2023-08-06T05:20:37;95914.88;;;24.36;66.46
34297;BME280;20564;42.902;25.336;2023-08-06T05:23:05;95907.03;;;24.34;67.18
34297;BME280;20564;42.902;25.336;2023-08-06T05:25:31;95904.16;;;24.41;68.90
34297;BME280;20564;42.902;25.336;2023-08-06T05:27:58;95894.25;;;24.46;68.03
34297;BME280;20564;42.902;25.336;2023-08-06T05:30:26;95894.00;;;24.53;69.27
34297;BME280;20564;42.902;25.336;2023-08-06T05:32:53;95893.47;;;24.56;68.70
34297;BME280;20564;42.902;25.336;2023-08-06T05:35:20;95891.94;;;24.65;68.84
34297;BME280;20564;42.902;25.336;2023-08-06T05:37:47;95888.72;;;24.68;66.83
34297;BME280;20564;42.902;25.336;2023-08-06T05:40:14;95885.75;;;24.70;66.55
34297;BME280;20564;42.902;25.336;2023-08-06T05:42:41;95892.50;;;24.72;66.60
34297;BME280;20564;42.902;25.336;2023-08-06T05:45:08;95885.03;;;24.90;64.15
34297;BME280;20564;42.902;25.336;2023-08-06T05:47:36;95884.56;;;25.08;64.08
34297;BME280;20564;42.902;25.336;2023-08-06T05:50:03;95887.63;;;25.37;61.71
34297;BME280;20564;42.902;25.336;2023-08-06T05:52:30;95873.69;;;25.76;59.94
34297;BME280;20564;42.902;25.336;2023-08-06T05:54:57;95875.34;;;26.13;60.05
34297;BME280;20564;42.902;25.336;2023-08-06T05:57:24;95875.56;;;26.47;57.49
34297;BME280;20564;42.902;25.336;2023-08-06T05:59:51;95871.50;;;26.70;55.82
34297;BME280;20564;42.902;25.336;2023-08-06T06:02:18;95867.91;;;26.95;54.76
34297;BME280;20564;42.902;25.336;2023-08-06T06:04:45;95869.72;;;27.05;53.59
34297;BME280;20564;42.902;25.336;2023-08-06T06:07:12;95865.38;;;27.19;54.01
34297;BME280;20564;42.902;25.336;2023-08-06T06:09:39;95868.72;;;27.50;53.41
34297;BME280;20564;42.902;25.336;2023-08-06T06:12:06;95859.53;;;27.85;53.07
34297;BME280;20564;42.902;25.336;2023-08-06T06:14:33;95863.63;;;28.17;51.29
34297;BME280;20564;42.902;25.336;2023-08-06T06:17:00;95860.94;;;28.46;50.46
34297;BME280;20564;42.902;25.336;2023-08-06T06:19:27;95849.25;;;28.75;49.73
34297;BME280;20564;42.902;25.336;2023-08-06T06:21:54;95854.31;;;29.05;48.90
34297;BME280;20564;42.902;25.336;2023-08-06T06:24:24;95845.97;;;29.21;47.59
34297;BME280;20564;42.902;25.336;2023-08-06T06:26:51;95852.88;;;29.32;46.97
34297;BME280;20564;42.902;25.336;2023-08-06T06:29:18;95855.97;;;29.44;47.58
34297;BME280;20564;42.902;25.336;2023-08-06T06:31:45;95859.16;;;29.46;47.37
34297;BME280;20564;42.902;25.336;2023-08-06T06:34:12;95856.31;;;29.56;47.16
34297;BME280;20564;42.902;25.336;2023-08-06T06:36:39;95843.94;;;29.50;47.93
34297;BME280;20564;42.902;25.336;2023-08-06T06:39:06;95850.78;;;29.67;47.61
34297;BME280;20564;42.902;25.336;2023-08-06T06:41:33;95872.03;;;29.60;47.29
34297;BME280;20564;42.902;25.336;2023-08-06T06:44:00;95879.03;;;29.42;47.52
34297;BME280;20564;42.902;25.336;2023-08-06T06:46:26;95878.22;;;29.41;47.55
34297;BME280;20564;42.902;25.336;2023-08-06T06:48:53;95893.47;;;29.37;47.58
34297;BME280;20564;42.902;25.336;2023-08-06T06:51:20;95876.75;;;29.30;47.15
34297;BME280;20564;42.902;25.336;2023-08-06T06:53:47;95879.16;;;29.31;49.16
34297;BME280;20564;42.902;25.336;2023-08-06T06:56:14;95892.28;;;29.24;47.27
34297;BME280;20564;42.902;25.336;2023-08-06T06:58:41;95882.97;;;29.12;48.83
34297;BME280;20564;42.902;25.336;2023-08-06T07:01:09;95881.75;;;28.99;49.80
34297;BME280;20564;42.902;25.336;2023-08-06T07:03:38;95873.72;;;28.89;49.49
34297;BME280;20564;42.902;25.336;2023-08-06T07:06:06;95883.44;;;28.66;50.75
34297;BME280;20564;42.902;25.336;2023-08-06T07:08:33;95900.97;;;28.49;51.07
34297;BME280;20564;42.902;25.336;2023-08-06T07:11:02;95909.03;;;28.20;51.27
34297;BME280;20564;42.902;25.336;2023-08-06T07:13:33;95915.28;;;27.86;52.03
34297;BME280;20564;42.902;25.336;2023-08-06T07:16:01;95941.41;;;27.52;52.40
34297;BME280;20564;42.902;25.336;2023-08-06T07:18:28;95960.72;;;27.09;53.80
34297;BME280;20564;42.902;25.336;2023-08-06T07:20:55;95969.22;;;26.67;55.41
34297;BME280;20564;42.902;25.336;2023-08-06T07:23:24;95975.94;;;26.29;56.70
34297;BME280;20564;42.902;25.336;2023-08-06T07:25:51;95964.06;;;25.94;58.17
34297;BME280;20564;42.902;25.336;2023-08-06T07:28:18;95943.22;;;25.64;60.22
34297;BME280;20564;42.902;25.336;2023-08-06T07:30:45;95947.69;;;25.33;66.64
34297;BME280;20564;42.902;25.336;2023-08-06T07:33:12;95972.25;;;24.89;70.97
34297;BME280;20564;42.902;25.336;2023-08-06T07:35:39;96013.72;;;24.50;74.98
34297;BME280;20564;42.902;25.336;2023-08-06T07:38:07;96004.19;;;24.11;79.47
34297;BME280;20564;42.902;25.336;2023-08-06T07:40:35;96033.25;;;23.65;82.07
34297;BME280;20564;42.902;25.336;2023-08-06T07:43:03;96043.13;;;23.37;85.07
34297;BME280;20564;42.902;25.336;2023-08-06T07:45:34;96060.34;;;23.19;88.78
34297;BME280;20564;42.902;25.336;2023-08-06T07:48:03;95995.56;;;22.94;88.91
34297;BME280;20564;42.902;25.336;2023-08-06T07:50:30;95956.06;;;22.72;92.42
34297;BME280;20564;42.902;25.336;2023-08-06T07:52:58;95957.22;;;22.59;95.27
34297;BME280;20564;42.902;25.336;2023-08-06T07:55:25;95928.94;;;22.52;96.06
34297;BME280;20564;42.902;25.336;2023-08-06T07:57:53;95929.81;;;22.35;94.84
34297;BME280;20564;42.902;25.336;2023-08-06T08:00:21;95918.28;;;22.18;98.09
34297;BME280;20564;42.902;25.336;2023-08-06T08:02:48;95905.44;;;22.20;100.00
34297;BME280;20564;42.902;25.336;2023-08-06T08:05:15;95875.16;;;22.20;100.00
34297;BME280;20564;42.902;25.336;2023-08-06T08:07:42;95902.59;;;22.10;100.00
34297;BME280;20564;42.902;25.336;2023-08-06T08:21:28;95915.22;;;22.48;100.00
34297;BME280;20564;42.902;25.336;2023-08-06T08:23:55;95911.41;;;22.44;100.00
34297;BME280;20564;42.902;25.336;2023-08-06T08:26:22;95921.34;;;22.44;100.00
34297;BME280;20564;42.902;25.336;2023-08-06T08:28:50;95938.56;;;22.48;100.00
34297;BME280;20564;42.902;25.336;2023-08-06T08:31:17;95933.50;;;22.68;100.00
34297;BME280;20564;42.902;25.336;2023-08-06T08:33:44;95917.44;;;22.73;100.00
34297;BME280;20564;42.902;25.336;2023-08-06T08:36:11;95909.91;;;22.70;100.00
34297;BME280;20564;42.902;25.336;2023-08-06T08:38:39;95908.72;;;22.83;100.00
34297;BME280;20564;42.902;25.336;2023-08-06T08:41:06;95899.31;;;22.80;100.00
34297;BME280;20564;42.902;25.336;2023-08-06T08:43:33;95902.88;;;22.86;100.00
34297;BME280;20564;42.902;25.336;2023-08-06T08:46:01;95916.22;;;22.81;100.00
34297;BME280;20564;42.902;25.336;2023-08-06T08:48:29;95918.22;;;22.91;100.00
34297;BME280;20564;42.902;25.336;2023-08-06T08:50:57;95909.88;;;23.09;100.00
34297;BME280;20564;42.902;25.336;2023-08-06T08:53:24;95912.91;;;23.40;98.67
34297;BME280;20564;42.902;25.336;2023-08-06T08:55:52;95905.19;;;23.70;94.79
34297;BME280;20564;42.902;25.336;2023-08-06T08:58:20;95897.13;;;24.02;91.82
34297;BME280;20564;42.902;25.336;2023-08-06T09:00:47;95879.34;;;24.39;88.33
34297;BME280;20564;42.902;25.336;2023-08-06T09:03:17;95863.97;;;24.71;90.14
34297;BME280;20564;42.902;25.336;2023-08-06T09:05:44;95860.28;;;24.93;89.13
34297;BME280;20564;42.902;25.336;2023-08-06T09:08:15;95869.56;;;25.12;84.67
34297;BME280;20564;42.902;25.336;2023-08-06T09:10:44;95899.25;;;25.38;87.07
34297;BME280;20564;42.902;25.336;2023-08-06T09:13:15;95900.34;;;25.42;81.61
34297;BME280;20564;42.902;25.336;2023-08-06T09:15:42;95910.59;;;25.55;81.69
34297;BME280;20564;42.902;25.336;2023-08-06T09:18:11;95914.84;;;25.41;80.53
34297;BME280;20564;42.902;25.336;2023-08-06T09:20:39;95941.22;;;25.34;82.66
34297;BME280;20564;42.902;25.336;2023-08-06T09:23:09;95940.38;;;25.18;84.29
34297;BME280;20564;42.902;25.336;2023-08-06T09:25:39;95947.50;;;24.97;85.73
34297;BME280;20564;42.902;25.336;2023-08-06T09:28:12;95951.16;;;24.70;85.00
34297;BME280;20564;42.902;25.336;2023-08-06T09:30:39;95962.31;;;24.52;87.72
34297;BME280;20564;42.902;25.336;2023-08-06T09:33:09;95963.47;;;24.29;87.69
34297;BME280;20564;42.902;25.336;2023-08-06T09:35:41;95961.38;;;24.04;87.84
34297;BME280;20564;42.902;25.336;2023-08-06T09:38:10;95968.72;;;23.81;89.11
34297;BME280;20564;42.902;25.336;2023-08-06T09:40:40;95963.72;;;23.68;89.81
34297;BME280;20564;42.902;25.336;2023-08-06T09:43:07;95963.50;;;23.48;91.65
34297;BME280;20564;42.902;25.336;2023-08-06T09:45:36;95941.31;;;23.35;93.08
34297;BME280;20564;42.902;25.336;2023-08-06T09:48:07;95941.81;;;23.10;94.68
34297;BME280;20564;42.902;25.336;2023-08-06T09:50:36;95948.41;;;22.98;97.66
34297;BME280;20564;42.902;25.336;2023-08-06T09:53:05;95960.03;;;22.86;100.00
34297;BME280;20564;42.902;25.336;2023-08-06T09:55:33;95961.59;;;22.82;99.17
34297;BME280;20564;42.902;25.336;2023-08-06T09:58:00;95957.78;;;22.78;98.68
34297;BME280;20564;42.902;25.336;2023-08-06T10:00:27;95962.41;;;22.66;99.86
34297;BME280;20564;42.902;25.336;2023-08-06T10:02:59;95972.06;;;22.45;100.00
34297;BME280;20564;42.902;25.336;2023-08-06T10:05:26;95978.06;;;22.35;100.00
34297;BME280;20564;42.902;25.336;2023-08-06T10:07:55;95980.63;;;22.30;100.00
34297;BME280;20564;42.902;25.336;2023-08-06T10:10:23;95989.53;;;22.31;100.00
34297;BME280;20564;42.902;25.336;2023-08-06T10:12:54;95987.28;;;22.11;100.00
34297;BME280;20564;42.902;25.336;2023-08-06T10:15:25;96001.56;;;22.00;100.00
34297;BME280;20564;42.902;25.336;2023-08-06T10:17:57;96010.31;;;21.95;100.00
34297;BME280;20564;42.902;25.336;2023-08-06T10:20:32;96030.41;;;21.81;100.00
34297;BME280;20564;42.902;25.336;2023-08-06T10:23:02;96042.03;;;21.58;100.00
34297;BME280;20564;42.902;25.336;2023-08-06T10:25:34;96033.13;;;21.40;100.00
34297;BME280;20564;42.902;25.336;2023-08-06T10:28:11;96017.19;;;21.22;100.00
34297;BME280;20564;42.902;25.336;2023-08-06T10:30:45;96004.19;;;21.02;100.00
34297;BME280;20564;42.902;25.336;2023-08-06T10:33:13;96014.66;;;20.80;100.00
34297;BME280;20564;42.902;25.336;2023-08-06T10:35:41;96019.22;;;20.68;100.00
34297;BME280;20564;42.902;25.336;2023-08-06T10:38:14;96023.41;;;20.52;100.00
34297;BME280;20564;42.902;25.336;2023-08-06T10:40:48;96032.69;;;20.50;100.00
34297;BME280;20564;42.902;25.336;2023-08-06T10:43:27;96046.03;;;20.50;100.00
34297;BME280;20564;42.902;25.336;2023-08-06T10:45:56;96045.22;;;20.49;100.00
34297;BME280;20564;42.902;25.336;2023-08-06T10:48:41;96045.59;;;20.53;100.00
34297;BME280;20564;42.902;25.336;2023-08-06T10:51:10;96022.88;;;20.43;100.00
34297;BME280;20564;42.902;25.336;2023-08-06T10:53:38;96000.56;;;20.38;100.00
34297;BME280;20564;42.902;25.336;2023-08-06T10:56:16;95991.59;;;20.32;100.00
34297;BME280;20564;42.902;25.336;2023-08-06T10:58:47;96022.66;;;20.33;100.00
34297;BME280;20564;42.902;25.336;2023-08-06T11:01:15;96033.44;;;20.38;100.00
34297;BME280;20564;42.902;25.336;2023-08-06T11:03:45;96023.47;;;20.45;100.00
34297;BME280;20564;42.902;25.336;2023-08-06T11:06:20;96024.88;;;20.48;100.00
34297;BME280;20564;42.902;25.336;2023-08-06T11:08:52;96033.72;;;20.48;100.00
34297;BME280;20564;42.902;25.336;2023-08-06T11:11:21;96044.19;;;20.50;100.00
34297;BME280;20564;42.902;25.336;2023-08-06T11:13:50;96050.94;;;20.53;100.00
34297;BME280;20564;42.902;25.336;2023-08-06T11:16:19;96045.25;;;20.61;100.00
34297;BME280;20564;42.902;25.336;2023-08-06T11:18:47;96039.19;;;20.65;100.00
34297;BME280;20564;42.902;25.336;2023-08-06T11:21:14;96031.78;;;20.67;100.00
34297;BME280;20564;42.902;25.336;2023-08-06T11:23:41;96024.44;;;20.75;100.00
34297;BME280;20564;42.902;25.336;2023-08-06T11:26:08;96015.50;;;20.81;100.00
34297;BME280;20564;42.902;25.336;2023-08-06T11:28:35;96019.91;;;20.87;100.00
34297;BME280;20564;42.902;25.336;2023-08-06T11:31:02;96032.81;;;20.90;100.00
34297;BME280;20564;42.902;25.336;2023-08-06T11:33:30;96031.53;;;20.92;100.00
34297;BME280;20564;42.902;25.336;2023-08-06T11:35:59;96039.78;;;21.03;100.00
34297;BME280;20564;42.902;25.336;2023-08-06T11:38:30;96046.31;;;21.07;100.00
34297;BME280;20564;42.902;25.336;2023-08-06T11:40:57;96050.22;;;21.16;100.00
34297;BME280;20564;42.902;25.336;2023-08-06T11:43:24;96053.22;;;21.31;100.00
34297;BME280;20564;42.902;25.336;2023-08-06T11:45:51;96069.53;;;21.41;100.00
34297;BME280;20564;42.902;25.336;2023-08-06T11:48:20;96070.56;;;21.52;100.00
34297;BME280;20564;42.902;25.336;2023-08-06T11:50:47;96073.97;;;21.48;100.00
34297;BME280;20564;42.902;25.336;2023-08-06T11:53:14;96070.91;;;21.56;100.00
34297;BME280;20564;42.902;25.336;2023-08-06T11:55:42;96067.59;;;21.77;100.00
34297;BME280;20564;42.902;25.336;2023-08-06T11:58:10;96066.91;;;21.99;100.00
34297;BME280;20564;42.902;25.336;2023-08-06T12:00:38;96070.13;;;22.12;100.00
34297;BME280;20564;42.902;25.336;2023-08-06T12:03:05;96073.91;;;22.28;100.00
34297;BME280;20564;42.902;25.336;2023-08-06T12:05:32;96081.66;;;22.42;100.00
34297;BME280;20564;42.902;25.336;2023-08-06T12:08:00;96086.94;;;22.53;100.00
34297;BME280;20564;42.902;25.336;2023-08-06T12:10:30;96082.63;;;22.69;100.00
34297;BME280;20564;42.902;25.336;2023-08-06T12:12:57;96080.38;;;22.95;100.00
34297;BME280;20564;42.902;25.336;2023-08-06T12:15:24;96071.41;;;23.06;100.00
34297;BME280;20564;42.902;25.336;2023-08-06T12:17:54;96057.09;;;23.39;100.00
34297;BME280;20564;42.902;25.336;2023-08-06T12:20:27;96064.03;;;23.57;96.56
34297;BME280;20564;42.902;25.336;2023-08-06T12:22:55;96062.31;;;23.68;94.44
34297;BME280;20564;42.902;25.336;2023-08-06T12:25:22;96071.59;;;23.77;97.13
34297;BME280;20564;42.902;25.336;2023-08-06T12:27:50;96062.91;;;23.97;95.89
34297;BME280;20564;42.902;25.336;2023-08-06T12:30:17;96061.94;;;24.35;96.13
34297;BME280;20564;42.902;25.336;2023-08-06T12:32:44;96051.13;;;24.57;89.18
34297;BME280;20564;42.902;25.336;2023-08-06T12:35:11;96059.06;;;24.69;92.85
34297;BME280;20564;42.902;25.336;2023-08-06T12:37:38;96047.69;;;24.99;91.86
34297;BME280;20564;42.902;25.336;2023-08-06T12:40:06;96042.25;;;25.36;89.47
34297;BME280;20564;42.902;25.336;2023-08-06T12:42:53;96038.88;;;25.61;86.52
34297;BME280;20564;42.902;25.336;2023-08-06T12:45:20;96037.91;;;25.83;86.86
34297;BME280;20564;42.902;25.336;2023-08-06T12:47:48;96027.16;;;25.98;84.73
34297;BME280;20564;42.902;25.336;2023-08-06T12:50:17;96029.34;;;26.11;83.50
34297;BME280;20564;42.902;25.336;2023-08-06T12:52:45;96028.00;;;26.39;84.85
34297;BME280;20564;42.902;25.336;2023-08-06T12:55:12;96011.06;;;26.49;82.24
34297;BME280;20564;42.902;25.336;2023-08-06T12:57:39;96001.88;;;26.50;82.27
34297;BME280;20564;42.902;25.336;2023-08-06T13:00:25;96015.38;;;26.60;82.15
34297;BME280;20564;42.902;25.336;2023-08-06T13:02:52;96009.44;;;26.58;79.08
34297;BME280;20564;42.902;25.336;2023-08-06T13:05:19;96004.28;;;26.62;80.82
34297;BME280;20564;42.902;25.336;2023-08-06T13:07:46;96001.84;;;26.81;81.49
34297;BME280;20564;42.902;25.336;2023-08-06T13:10:13;95988.34;;;26.76;77.75